Time;durP1;ratioP1;P1;durP2;ratioP2;P2;SDS_P1;SDS_P2;PMS_P1;PMS_P2;Temp;Humidity;BMP_temperature;BMP_pressure;BME280_temperature;BME280_humidity;BME280_pressure;Samples;Min_cycle;Max_cycle;Signal;HPM_P1;HPM_P2
2023/07/11 00:02:23;;;;;;;5.57;3.03;;;;;;;15.27;69.29;98731.06;4919960;29;20042;-65
2023/07/11 00:04:49;;;;;;;7.72;3.28;;;;;;;15.24;69.48;98741.28;4919676;28;20043;-64
2023/07/11 00:07:14;;;;;;;8.23;3.30;;;;;;;15.22;69.87;98744.16;4922805;28;20387;-64
2023/07/11 00:09:39;;;;;;;5.35;2.88;;;;;;;15.23;70.07;98713.63;4919849;29;20058;-66
2023/07/11 00:12:05;;;;;;;5.93;3.55;;;;;;;15.23;70.01;98723.50;4932735;28;20051;-64
2023/07/11 00:14:30;;;;;;;5.18;3.00;;;;;;;15.23;69.93;98720.81;4938676;28;20042;-65
2023/07/11 00:16:55;;;;;;;3.42;2.65;;;;;;;15.24;69.80;98719.78;4939273;28;20390;-68
2023/07/11 00:19:20;;;;;;;3.17;2.83;;;;;;;15.24;69.88;98712.59;4938604;28;20073;-66
2023/07/11 00:21:46;;;;;;;4.68;3.00;;;;;;;15.24;69.79;98720.63;4938877;28;20034;-67
2023/07/11 00:24:12;;;;;;;4.25;2.85;;;;;;;15.25;70.21;98729.53;4937345;28;20146;-67
2023/07/11 00:26:40;;;;;;;4.88;3.17;;;;;;;15.24;70.09;98714.41;4938818;28;20035;-68
2023/07/11 00:29:20;;;;;;;3.90;2.85;;;;;;;15.29;70.14;98717.47;4938390;28;20250;-66
2023/07/11 00:31:45;;;;;;;4.13;2.47;;;;;;;15.25;69.96;98719.63;4925090;28;20502;-66
2023/07/11 00:34:10;;;;;;;5.05;2.78;;;;;;;15.25;70.17;98716.09;4934703;28;20047;-66
2023/07/11 00:36:35;;;;;;;7.03;2.72;;;;;;;15.24;70.04;98719.78;4931888;28;20039;-66
2023/07/11 00:39:01;;;;;;;5.15;2.60;;;;;;;15.24;69.95;98717.09;4950951;28;20050;-66
2023/07/11 00:41:26;;;;;;;3.45;2.85;;;;;;;15.23;69.68;98718.13;4927537;28;20035;-66
2023/07/11 00:43:52;;;;;;;3.50;2.72;;;;;;;15.22;69.67;98724.50;4937131;28;20061;-65
2023/07/11 00:46:19;;;;;;;3.63;2.72;;;;;;;15.21;69.80;98720.13;4927094;28;20062;-66
2023/07/11 00:48:55;;;;;;;4.40;3.15;;;;;;;15.25;70.07;98718.78;4919298;29;20054;-66
2023/07/11 00:51:24;;;;;;;2.92;2.53;;;;;;;15.21;69.42;98726.34;4938105;28;20046;-67
2023/07/11 00:53:50;;;;;;;2.47;2.28;;;;;;;15.19;69.13;98722.13;4922408;28;20047;-68
2023/07/11 00:56:21;;;;;;;4.88;2.58;;;;;;;15.20;69.96;98721.97;4919163;29;20130;-69
2023/07/11 00:58:47;;;;;;;3.50;2.75;;;;;;;15.18;69.62;98723.13;4916702;29;20515;-67
2023/07/11 01:01:14;;;;;;;5.15;2.53;;;;;;;15.18;69.14;98720.44;4920164;28;20797;-67
2023/07/11 01:03:39;;;;;;;2.95;2.50;;;;;;;15.16;69.54;98734.03;4937269;28;20054;-66
2023/07/11 01:06:16;;;;;;;5.22;2.85;;;;;;;15.20;69.42;98721.13;4924338;28;20039;-66
2023/07/11 01:08:43;;;;;;;3.08;2.78;;;;;;;15.14;69.21;98717.25;4937741;28;20046;-67
2023/07/11 01:11:08;;;;;;;2.80;2.60;;;;;;;15.14;69.49;98713.72;4937430;28;20493;-66
2023/07/11 01:13:34;;;;;;;3.83;2.50;;;;;;;15.16;69.39;98717.09;4935954;28;20098;-64
2023/07/11 01:16:02;;;;;;;5.35;3.22;;;;;;;15.16;69.18;98712.56;4933261;28;20049;-65
2023/07/11 01:18:29;;;;;;;2.88;2.42;;;;;;;15.16;69.13;98706.34;4936098;28;20059;-66
2023/07/11 01:20:54;;;;;;;5.55;2.58;;;;;;;15.16;69.31;98706.34;4937968;28;20053;-64
2023/07/11 01:23:21;;;;;;;2.67;2.15;;;;;;;15.15;68.95;98704.66;4937886;28;20047;-66
2023/07/11 01:25:47;;;;;;;4.45;3.13;;;;;;;15.14;69.01;98703.81;4952570;28;20049;-65
2023/07/11 01:28:13;;;;;;;5.13;2.35;;;;;;;15.16;69.26;98711.72;4937567;28;20039;-67
2023/07/11 01:30:39;;;;;;;2.50;2.30;;;;;;;15.16;69.54;98717.09;4952337;28;20085;-66
2023/07/11 01:33:05;;;;;;;3.55;2.45;;;;;;;15.17;69.12;98708.88;4937331;28;20054;-65
2023/07/11 01:35:30;;;;;;;6.85;2.72;;;;;;;15.17;69.08;98724.13;4935671;28;20444;-67
2023/07/11 01:37:55;;;;;;;3.05;2.50;;;;;;;15.18;69.47;98710.56;4937398;28;20378;-65
2023/07/11 01:40:21;;;;;;;4.65;2.60;;;;;;;15.18;68.96;98709.72;4925352;28;20047;-66
2023/07/11 01:42:47;;;;;;;4.65;2.33;;;;;;;15.18;69.28;98705.19;4916873;28;20054;-64
2023/07/11 01:45:12;;;;;;;3.25;2.30;;;;;;;15.19;69.34;98712.25;4937241;28;20050;-66
2023/07/11 01:47:37;;;;;;;3.08;2.58;;;;;;;15.17;69.26;98724.13;4927732;28;20706;-68
2023/07/11 01:50:03;;;;;;;3.13;2.83;;;;;;;15.18;68.63;98715.94;4936671;28;20042;-70
2023/07/11 01:52:29;;;;;;;4.32;2.25;;;;;;;15.15;69.15;98726.97;4951739;28;20066;-69
2023/07/11 01:54:54;;;;;;;4.45;2.63;;;;;;;15.14;69.32;98713.72;4937053;28;20050;-69
2023/07/11 01:57:19;;;;;;;3.20;2.40;;;;;;;15.14;69.19;98671.59;4935963;28;20042;-70
2023/07/11 01:59:45;;;;;;;2.95;2.28;;;;;;;15.12;69.71;98711.19;4936111;28;20054;-70
2023/07/11 02:02:11;;;;;;;4.70;2.60;;;;;;;15.12;68.74;98715.75;4936718;28;20039;-71
2023/07/11 02:04:37;;;;;;;4.95;2.55;;;;;;;15.10;69.12;98709.69;4937057;28;20046;-70
2023/07/11 02:07:05;;;;;;;3.90;2.40;;;;;;;15.10;69.05;98715.06;4919850;28;20497;-69
2023/07/11 02:09:30;;;;;;;5.10;2.95;;;;;;;15.07;69.47;98729.63;4946783;28;20560;-69
2023/07/11 02:11:56;;;;;;;5.00;2.53;;;;;;;15.06;69.33;98713.69;4925430;28;20066;-69
2023/07/11 02:14:22;;;;;;;2.67;2.38;;;;;;;15.05;69.77;98712.00;4934493;28;20528;-69
2023/07/11 02:16:49;;;;;;;4.40;3.08;;;;;;;15.02;69.65;98698.88;4922944;28;20059;-70
2023/07/11 02:19:17;;;;;;;5.35;2.83;;;;;;;15.01;69.52;98729.44;4918962;28;20046;-70
2023/07/11 02:22:02;;;;;;;2.08;1.88;;;;;;;15.00;69.69;98715.19;4932828;28;20496;-69
2023/07/11 02:24:27;;;;;;;3.60;2.80;;;;;;;14.96;69.96;98716.50;4944717;28;20054;-68
2023/07/11 02:26:52;;;;;;;2.72;2.38;;;;;;;14.93;70.26;98710.59;4935442;28;20038;-69
2023/07/11 02:29:18;;;;;;;5.72;2.80;;;;;;;14.87;70.31;98729.03;4950726;28;20062;-69
2023/07/11 02:31:43;;;;;;;2.25;2.08;;;;;;;14.86;70.27;98708.56;4929867;28;20050;-70
2023/07/11 02:34:08;;;;;;;2.90;2.42;;;;;;;14.86;70.83;98721.97;4930278;28;20050;-69
2023/07/11 02:36:34;;;;;;;2.15;1.95;;;;;;;14.87;71.18;98706.72;4935203;28;20043;-68
2023/07/11 02:38:59;;;;;;;5.60;2.35;;;;;;;14.87;71.29;98706.72;4906865;28;20042;-68
2023/07/11 02:41:25;;;;;;;3.03;2.08;;;;;;;14.84;71.37;98718.59;4932447;28;20065;-67
2023/07/11 02:43:51;;;;;;;3.13;2.28;;;;;;;14.84;71.04;98710.56;4936348;28;20038;-67
2023/07/11 02:46:16;;;;;;;3.47;2.35;;;;;;;14.83;71.04;98716.91;4908376;29;20055;-67
2023/07/11 02:48:42;;;;;;;3.42;1.90;;;;;;;14.80;71.05;98717.22;4926766;28;20050;-68
2023/07/11 02:51:08;;;;;;;3.83;2.40;;;;;;;14.77;71.17;98676.47;4932130;28;20513;-69
2023/07/11 02:53:33;;;;;;;2.25;2.03;;;;;;;14.73;71.73;98716.19;4922166;28;20486;-64
2023/07/11 02:55:58;;;;;;;3.97;2.28;;;;;;;14.71;71.83;98718.19;4929207;28;20057;-67
2023/07/11 02:58:24;;;;;;;2.05;1.85;;;;;;;14.71;72.68;98712.81;4936245;28;20065;-67
2023/07/11 03:00:55;;;;;;;4.82;2.08;;;;;;;14.75;72.78;98716.03;4923416;28;20053;-67
2023/07/11 03:03:21;;;;;;;5.28;2.67;;;;;;;14.72;72.02;98719.88;4923513;28;20054;-65
2023/07/11 03:05:50;;;;;;;1.73;1.63;;;;;;;14.73;72.85;98715.34;4927598;28;20414;-66
2023/07/11 03:08:16;;;;;;;6.18;2.60;;;;;;;14.72;72.68;98713.66;4929300;28;20050;-67
2023/07/11 03:10:41;;;;;;;5.03;2.28;;;;;;;14.70;72.53;98743.31;4936315;28;20432;-67
2023/07/11 03:13:08;;;;;;;5.30;2.40;;;;;;;14.70;72.34;98719.19;4932426;28;21018;-70
2023/07/11 03:15:34;;;;;;;4.28;2.20;;;;;;;14.69;72.74;98719.34;4890907;28;20405;-70
2023/07/11 03:18:00;;;;;;;4.30;1.92;;;;;;;14.69;72.40;98722.88;4950996;28;20058;-70
2023/07/11 03:20:26;;;;;;;2.92;2.28;;;;;;;14.67;72.63;98721.38;4931504;28;20046;-69
2023/07/11 03:22:51;;;;;;;4.93;2.28;;;;;;;14.65;72.91;98718.84;4926847;28;20039;-69
2023/07/11 03:25:16;;;;;;;1.83;1.73;;;;;;;14.61;72.86;98713.94;4947171;28;20062;-70
2023/07/11 03:27:41;;;;;;;2.95;2.38;;;;;;;14.59;73.19;98730.19;4937180;28;20053;-70
2023/07/11 03:30:07;;;;;;;4.32;2.17;;;;;;;14.61;73.23;98721.97;4939666;28;20390;-70
2023/07/11 03:32:32;;;;;;;2.08;1.85;;;;;;;14.64;73.93;98725.19;4939616;28;20052;-70
2023/07/11 03:34:57;;;;;;;4.03;2.47;;;;;;;14.65;73.67;98718.84;4939906;28;20053;-69
2023/07/11 03:37:23;;;;;;;3.90;2.58;;;;;;;14.69;74.42;98713.97;4939613;28;20043;-70
2023/07/11 03:39:48;;;;;;;3.25;2.03;;;;;;;14.70;73.58;98727.22;4939517;28;20050;-71
2023/07/11 03:42:13;;;;;;;2.00;1.63;;;;;;;14.75;73.28;98716.88;4939417;28;20042;-70
2023/07/11 03:44:42;;;;;;;2.10;1.90;;;;;;;14.79;73.50;98715.53;4939435;28;20061;-71
2023/07/11 03:47:07;;;;;;;2.50;2.03;;;;;;;14.82;72.87;98715.25;4954204;28;20053;-69
2023/07/11 03:49:32;;;;;;;1.88;1.67;;;;;;;14.86;72.67;98713.09;4939294;28;20394;-70
2023/07/11 03:51:57;;;;;;;2.83;2.13;;;;;;;14.88;72.87;98730.72;4939361;28;20039;-70
2023/07/11 03:54:23;;;;;;;3.58;1.73;;;;;;;14.92;72.37;98709.75;4937667;28;20058;-70
2023/07/11 03:56:48;;;;;;;5.25;2.40;;;;;;;14.92;72.28;98714.28;4939098;28;20038;-70
2023/07/11 03:59:13;;;;;;;2.35;1.60;;;;;;;14.94;72.43;98717.66;4939254;28;20062;-70
2023/07/11 04:01:39;;;;;;;9.35;2.35;;;;;;;15.00;72.08;98743.88;4938932;28;20497;-70
2023/07/11 04:04:04;;;;;;;3.95;2.40;;;;;;;15.13;72.13;98717.41;4939032;28;20047;-71
2023/07/11 04:06:29;;;;;;;2.33;2.13;;;;;;;15.21;71.82;98709.41;4954482;28;20034;-71
2023/07/11 04:08:54;;;;;;;2.38;2.05;;;;;;;15.33;71.51;98716.16;4939219;28;20413;-70
2023/07/11 04:11:19;;;;;;;3.10;2.20;;;;;;;15.41;71.20;98704.59;4953926;28;20053;-70
2023/07/11 04:13:45;;;;;;;2.88;2.30;;;;;;;15.52;70.63;98706.97;4939033;28;20053;-70
2023/07/11 04:16:10;;;;;;;5.18;2.08;;;;;;;15.63;70.13;98725.50;4938679;28;20047;-70
2023/07/11 04:18:35;;;;;;;2.28;1.85;;;;;;;15.74;69.63;98702.88;4953352;28;20449;-70
2023/07/11 04:21:00;;;;;;;3.00;1.92;;;;;;;15.79;69.32;98703.22;4938806;28;20042;-70
2023/07/11 04:23:26;;;;;;;3.63;2.33;;;;;;;15.84;69.02;98695.50;4937246;28;20089;-70
2023/07/11 04:25:52;;;;;;;7.40;2.58;;;;;;;15.89;68.38;98693.16;4937386;28;20035;-70
2023/07/11 04:28:17;;;;;;;2.90;1.88;;;;;;;15.90;68.46;98694.84;4938645;28;20035;-70
2023/07/11 04:30:42;;;;;;;3.33;2.17;;;;;;;15.91;68.02;98691.97;4938757;28;20427;-70
2023/07/11 04:33:08;;;;;;;2.47;2.05;;;;;;;15.89;67.73;98720.88;4938408;28;20057;-71
2023/07/11 04:35:33;;;;;;;2.88;1.85;;;;;;;15.90;67.63;98689.47;4938764;28;20414;-70
2023/07/11 04:37:58;;;;;;;5.55;3.42;;;;;;;15.90;67.80;98694.84;4937846;28;20051;-70
2023/07/11 04:40:23;;;;;;;3.92;2.38;;;;;;;15.93;67.44;98689.09;4936629;28;20055;-71
2023/07/11 04:42:49;;;;;;;3.55;2.03;;;;;;;15.90;67.16;98682.25;4938492;28;20068;-70
2023/07/11 04:45:16;;;;;;;4.00;2.25;;;;;;;15.87;67.16;98684.41;4938332;28;20374;-70
2023/07/11 04:47:41;;;;;;;2.72;2.28;;;;;;;15.86;67.54;98696.16;4953386;28;20398;-71
2023/07/11 04:50:06;;;;;;;2.80;2.13;;;;;;;15.80;66.93;98689.59;4953285;28;20516;-70
2023/07/11 04:52:32;;;;;;;4.35;1.98;;;;;;;15.73;66.75;98687.75;4920772;28;20125;-72
2023/07/11 04:54:57;;;;;;;4.43;2.38;;;;;;;15.68;66.61;98696.31;4952882;28;20143;-71
2023/07/11 04:57:22;;;;;;;3.80;1.60;;;;;;;15.66;66.69;98687.56;4952960;28;20413;-71
2023/07/11 04:59:48;;;;;;;3.63;1.75;;;;;;;15.66;66.60;98690.25;4938264;28;20050;-72
2023/07/11 05:02:13;;;;;;;2.75;2.08;;;;;;;15.65;66.61;98688.59;4950901;28;20039;-72
2023/07/11 05:04:39;;;;;;;4.70;2.13;;;;;;;15.67;66.64;98677.69;4938176;28;20058;-72
2023/07/11 05:07:05;;;;;;;8.50;2.50;;;;;;;15.73;66.84;98687.75;4936672;28;20053;-71
2023/07/11 05:09:30;;;;;;;3.67;2.00;;;;;;;15.85;66.49;98702.53;4938296;28;20055;-71
2023/07/11 05:11:55;;;;;;;4.30;1.60;;;;;;;16.00;65.86;98687.47;4938324;28;20046;-71
2023/07/11 05:14:21;;;;;;;5.47;1.70;;;;;;;16.09;65.61;98672.16;4937889;28;20062;-72
2023/07/11 05:16:46;;;;;;;9.40;1.92;;;;;;;16.11;65.28;98681.75;4938005;28;20453;-71
2023/07/11 05:19:11;;;;;;;4.97;2.13;;;;;;;16.09;64.90;98696.34;4937626;28;20424;-70
2023/07/11 05:21:36;;;;;;;5.80;1.80;;;;;;;16.03;64.95;98667.47;4937642;28;20543;-72
2023/07/11 05:24:02;;;;;;;6.45;2.30;;;;;;;15.96;64.95;98672.66;4952513;28;20409;-71
2023/07/11 05:26:28;;;;;;;5.78;2.53;;;;;;;15.90;64.77;98633.03;4937703;28;20046;-71
2023/07/11 05:28:54;;;;;;;4.72;1.75;;;;;;;15.91;64.79;98658.91;4936520;28;20051;-72
2023/07/11 05:31:19;;;;;;;4.68;1.90;;;;;;;16.04;64.84;98663.75;4937440;28;20050;-71
2023/07/11 05:33:44;;;;;;;4.88;1.75;;;;;;;16.17;64.82;98659.53;4952562;28;20039;-71
2023/07/11 05:36:31;;;;;;;2.13;1.70;;;;;;;16.27;63.87;98692.47;4937401;28;20053;-71
2023/07/11 05:39:05;;;;;;;4.25;2.08;;;;;;;16.32;64.08;98663.25;4937290;28;20398;-71
2023/07/11 05:41:32;;;;;;;3.85;1.95;;;;;;;16.25;63.87;98664.91;4937474;28;20046;-71
2023/07/11 05:43:57;;;;;;;4.53;1.83;;;;;;;16.22;63.80;98642.91;4937521;28;20401;-71
2023/07/11 05:46:23;;;;;;;5.70;1.85;;;;;;;16.17;63.76;98673.00;4937233;28;20050;-71
2023/07/11 05:48:49;;;;;;;4.75;1.80;;;;;;;16.17;63.85;98697.19;4937330;28;20053;-71
2023/07/11 05:51:16;;;;;;;2.22;1.30;;;;;;;16.19;63.98;98673.66;4937160;28;20054;-70
2023/07/11 05:53:41;;;;;;;2.45;1.55;;;;;;;16.18;63.81;98666.59;4937241;28;20054;-71
2023/07/11 05:56:07;;;;;;;2.33;1.48;;;;;;;16.16;63.85;98674.00;4951911;28;20047;-72
2023/07/11 05:58:34;;;;;;;2.17;1.73;;;;;;;16.30;64.05;98675.16;4952132;28;20069;-70
2023/07/11 06:00:59;;;;;;;1.50;1.40;;;;;;;16.50;63.57;98681.03;4937003;28;20055;-71
2023/07/11 06:03:26;;;;;;;2.47;1.95;;;;;;;16.66;63.49;98665.72;4937034;28;20066;-70
2023/07/11 06:05:53;;;;;;;3.08;1.80;;;;;;;16.68;63.07;98684.41;4936779;28;20421;-70
2023/07/11 06:08:18;;;;;;;2.47;1.75;;;;;;;16.62;63.04;98690.47;4936705;28;20496;-70
2023/07/11 06:10:43;;;;;;;4.28;1.98;;;;;;;16.60;62.73;98671.75;4936995;28;20088;-70
2023/07/11 06:13:13;;;;;;;3.60;2.03;;;;;;;16.81;63.13;98665.88;4936825;28;20505;-71
2023/07/11 06:16:06;;;;;;;3.00;1.50;;;;;;;17.41;62.52;98654.47;4936782;28;20061;-73
2023/07/11 06:18:36;;;;;;;11.25;1.95;;;;;;;17.75;61.13;98654.13;4936718;28;20147;-72
2023/07/11 06:21:03;;;;;;;2.97;1.33;;;;;;;17.87;60.39;98638.38;4936784;28;20054;-72
2023/07/11 06:23:29;;;;;;;2.00;1.90;;;;;;;17.73;59.82;98640.84;4935688;28;20508;-72
2023/07/11 06:25:54;;;;;;;3.22;2.35;;;;;;;17.48;59.94;98636.59;4936735;28;20497;-72
2023/07/11 06:28:19;;;;;;;4.15;1.73;;;;;;;17.21;60.04;98650.56;4936594;28;20061;-71
2023/07/11 06:30:44;;;;;;;4.28;1.48;;;;;;;17.09;60.55;98647.41;4936757;28;20054;-72
2023/07/11 06:33:11;;;;;;;5.70;2.08;;;;;;;17.08;61.09;98620.66;4936299;28;20402;-73
2023/07/11 06:35:37;;;;;;;7.95;2.10;;;;;;;17.13;61.09;98639.84;4936722;28;20042;-71
2023/07/11 06:38:03;;;;;;;4.45;2.75;;;;;;;17.18;60.92;98583.56;4951724;28;20047;-71
2023/07/11 06:40:29;;;;;;;2.28;1.63;;;;;;;17.17;60.87;98636.59;4935268;28;20081;-71
2023/07/11 06:42:54;;;;;;;2.88;2.00;;;;;;;17.18;60.69;98626.66;4936727;28;20047;-71
2023/07/11 06:45:19;;;;;;;3.60;1.80;;;;;;;17.19;61.04;98629.19;4936220;28;20050;-71
2023/07/11 06:47:44;;;;;;;5.03;2.20;;;;;;;17.20;60.72;98625.47;4936404;28;20039;-71
2023/07/11 06:50:10;;;;;;;1.95;1.75;;;;;;;17.17;60.67;98627.66;4936553;28;20058;-71
2023/07/11 06:52:36;;;;;;;8.82;2.00;;;;;;;17.05;60.79;98628.06;4934756;28;20050;-71
2023/07/11 06:55:01;;;;;;;8.48;1.80;;;;;;;16.96;61.22;98602.19;4934920;28;20053;-70
2023/07/11 06:57:29;;;;;;;3.42;1.85;;;;;;;16.88;61.08;98634.53;4936361;28;20053;-71
2023/07/11 06:59:54;;;;;;;6.80;2.45;;;;;;;16.84;61.30;98629.66;4935166;28;20054;-71
2023/07/11 07:02:19;;;;;;;7.22;2.40;;;;;;;16.79;61.68;98623.97;4937722;28;20054;-72
2023/07/11 07:04:45;;;;;;;4.95;2.08;;;;;;;16.69;61.86;98633.09;4940137;28;20486;-72
2023/07/11 07:07:12;;;;;;;3.85;2.55;;;;;;;16.59;62.00;98642.34;4938843;28;20042;-71
2023/07/11 07:09:37;;;;;;;29.80;15.25;;;;;;;16.54;62.42;98631.25;4954784;28;20050;-72
2023/07/11 07:12:03;;;;;;;9.90;3.47;;;;;;;16.51;62.45;98640.50;4940069;28;20520;-72
2023/07/11 07:14:28;;;;;;;6.07;2.95;;;;;;;16.51;62.60;98628.91;4939897;28;20046;-72
2023/07/11 07:16:54;;;;;;;6.82;3.08;;;;;;;16.53;62.74;98626.88;4939986;28;20405;-72
2023/07/11 07:19:19;;;;;;;3.25;2.15;;;;;;;16.62;62.75;98652.78;4939936;28;20081;-71
2023/07/11 07:21:44;;;;;;;7.55;3.03;;;;;;;16.74;62.45;98634.41;4939877;28;20042;-70
2023/07/11 07:24:11;;;;;;;2.80;2.15;;;;;;;16.90;62.18;98626.28;4939765;28;20413;-71
2023/07/11 07:26:37;;;;;;;3.75;2.10;;;;;;;17.04;61.76;98642.53;4939528;28;20043;-71
2023/07/11 07:29:02;;;;;;;3.42;2.45;;;;;;;17.14;61.16;98619.97;4939690;28;20057;-72
2023/07/11 07:31:28;;;;;;;5.80;2.05;;;;;;;17.16;60.93;98634.91;4939665;28;20497;-71
2023/07/11 07:33:53;;;;;;;8.88;2.28;;;;;;;17.28;60.74;98611.09;4939572;28;20050;-70
2023/07/11 07:36:19;;;;;;;5.13;2.58;;;;;;;17.39;60.92;98613.41;4938337;28;20046;-70
2023/07/11 07:38:44;;;;;;;2.47;1.83;;;;;;;17.39;60.29;98632.25;4939415;28;20074;-70
2023/07/11 07:41:10;;;;;;;4.88;2.38;;;;;;;17.37;60.34;98615.47;4939551;28;20051;-70
2023/07/11 07:43:36;;;;;;;6.78;2.40;;;;;;;17.33;60.26;98622.22;4939470;28;20042;-71
2023/07/11 07:46:03;;;;;;;4.13;1.95;;;;;;;17.29;60.42;98628.94;4939365;28;20062;-71
2023/07/11 07:48:29;;;;;;;4.93;2.47;;;;;;;17.32;59.98;98617.84;4937854;28;20061;-71
2023/07/11 07:51:10;;;;;;;4.13;2.03;;;;;;;17.53;59.77;98615.34;4939231;28;20042;-71
2023/07/11 07:53:35;;;;;;;5.00;2.05;;;;;;;17.71;59.76;98613.25;4939358;28;20053;-71
2023/07/11 07:56:05;;;;;;;9.43;2.20;;;;;;;17.78;59.03;98624.97;4937659;28;20047;-71
2023/07/11 07:58:31;;;;;;;4.10;2.33;;;;;;;17.73;59.00;98615.72;4954327;28;20050;-71
2023/07/11 08:00:56;;;;;;;2.65;2.40;;;;;;;17.70;58.88;98610.72;4939249;28;20050;-71
2023/07/11 08:03:22;;;;;;;3.45;2.15;;;;;;;17.75;59.00;98609.16;4954182;28;20054;-71
2023/07/11 08:05:47;;;;;;;5.75;3.28;;;;;;;17.91;58.93;98618.97;4939183;28;20047;-71
2023/07/11 08:08:12;;;;;;;7.32;2.33;;;;;;;18.06;58.44;98616.28;4939099;28;20081;-71
2023/07/11 08:10:37;;;;;;;3.33;2.20;;;;;;;18.13;58.38;98618.09;4939072;28;20051;-72
2023/07/11 08:13:03;;;;;;;4.88;2.28;;;;;;;18.11;58.43;98606.66;4937858;28;20043;-70
2023/07/11 08:15:28;;;;;;;3.13;2.38;;;;;;;18.07;58.60;98609.88;4938774;28;20050;-71
2023/07/11 08:17:53;;;;;;;4.45;1.73;;;;;;;18.04;58.55;98607.56;4938606;28;20061;-73
2023/07/11 08:20:19;;;;;;;3.58;2.47;;;;;;;17.97;58.23;98607.44;4939025;28;20476;-71
2023/07/11 08:22:44;;;;;;;2.50;2.30;;;;;;;17.88;58.52;98618.50;4939222;28;20046;-70
2023/07/11 08:25:09;;;;;;;2.70;1.83;;;;;;;17.75;59.06;98605.59;4939163;28;20065;-71
2023/07/11 08:27:34;;;;;;;6.00;2.35;;;;;;;17.60;59.00;98607.41;4939056;28;20047;-71
2023/07/11 08:30:00;;;;;;;5.28;3.03;;;;;;;17.44;59.80;98605.63;4938856;28;20493;-71
2023/07/11 08:32:25;;;;;;;11.13;2.83;;;;;;;17.33;60.03;98606.03;4938962;28;20075;-70
2023/07/11 08:34:50;;;;;;;4.50;2.63;;;;;;;17.25;60.25;98616.88;4938849;28;20123;-71
2023/07/11 08:37:15;;;;;;;8.55;2.88;;;;;;;17.20;60.48;98613.84;4937022;28;20066;-72
2023/07/11 08:39:41;;;;;;;3.83;2.13;;;;;;;17.17;60.57;98635.75;4938828;28;20042;-71
2023/07/11 08:42:19;;;;;;;3.42;2.38;;;;;;;17.26;61.38;98618.56;4938920;28;20397;-69
2023/07/11 08:45:19;;;;;;;4.43;2.70;;;;;;;17.51;61.36;98628.16;4937561;28;20378;-72
2023/07/11 08:47:50;;;;;;;8.18;2.58;;;;;;;17.82;60.90;98625.47;4936808;28;20054;-72
2023/07/11 08:50:20;;;;;;;3.65;2.28;;;;;;;18.29;59.84;98637.84;4938184;28;20049;-72
2023/07/11 08:52:49;;;;;;;3.10;2.33;;;;;;;18.74;58.73;98636.91;4938528;28;20046;-72
2023/07/11 08:55:31;;;;;;;3.78;2.33;;;;;;;19.03;56.92;98611.75;4953161;28;20070;-71
2023/07/11 08:58:15;;;;;;;5.03;2.15;;;;;;;19.09;57.11;98619.94;4937893;28;20054;-71
2023/07/11 09:00:45;;;;;;;6.70;2.50;;;;;;;18.77;57.07;98628.44;4936372;28;20047;-71
2023/07/11 09:03:35;;;;;;;3.20;2.05;;;;;;;18.48;57.82;98626.53;4936313;28;20055;-71
2023/07/11 09:06:04;;;;;;;2.28;2.05;;;;;;;18.21;58.12;98624.44;4937892;28;20054;-70
2023/07/11 09:08:31;;;;;;;2.88;2.35;;;;;;;17.98;58.63;98619.91;4936281;28;20059;-70
2023/07/11 09:11:07;;;;;;;2.03;1.90;;;;;;;17.95;59.35;98625.66;4920322;28;20051;-70
2023/07/11 09:13:42;;;;;;;3.67;2.13;;;;;;;17.83;59.52;98610.97;4926067;28;20047;-72
2023/07/11 09:16:19;;;;;;;3.38;2.08;;;;;;;17.95;59.65;98614.88;4918942;29;20051;-71
2023/07/11 09:19:02;;;;;;;8.27;2.20;;;;;;;17.99;59.39;98626.16;4917631;28;20058;-70
2023/07/11 09:21:32;;;;;;;2.00;1.73;;;;;;;18.23;59.23;98622.41;4917073;28;20058;-70
2023/07/11 09:24:04;;;;;;;2.30;2.08;;;;;;;18.54;58.94;98614.16;4917165;28;20046;-72
2023/07/11 09:26:33;;;;;;;5.68;2.03;;;;;;;18.95;57.92;98614.56;4918483;29;20418;-71
2023/07/11 09:29:06;;;;;;;3.05;2.20;;;;;;;19.35;56.75;98618.59;4933314;28;20042;-72
2023/07/11 09:31:41;;;;;;;3.08;2.13;;;;;;;19.62;56.10;98608.94;4918490;29;20128;-71
2023/07/11 09:34:37;;;;;;;25.15;14.50;;;;;;;19.87;55.50;98640.81;4916530;29;20074;-72
2023/07/11 09:37:26;;;;;;;5.78;3.53;;;;;;;19.91;55.46;98614.22;4917788;28;20058;-73
2023/07/11 09:40:19;;;;;;;7.68;2.63;;;;;;;19.94;54.93;98609.25;4918354;29;20516;-73
2023/07/11 09:42:51;;;;;;;3.20;2.33;;;;;;;20.26;54.04;98607.03;4926106;28;20047;-72
2023/07/11 09:45:19;;;;;;;7.50;2.38;;;;;;;20.92;52.75;98602.06;4901464;29;20046;-72
2023/07/11 09:47:58;;;;;;;3.35;1.90;;;;;;;21.24;51.60;98598.66;4920675;28;20050;-70
2023/07/11 09:50:40;;;;;;;4.97;2.17;;;;;;;21.48;51.09;98601.88;4932661;28;20050;-71
2023/07/11 09:53:13;;;;;;;6.13;2.72;;;;;;;21.40;50.75;98600.19;4933555;28;20050;-71
2023/07/11 09:55:40;;;;;;;4.05;2.75;;;;;;;21.15;50.88;98602.56;4929177;28;20623;-71
2023/07/11 09:58:05;;;;;;;8.90;3.05;;;;;;;20.97;51.21;98603.13;4931814;28;20055;-70
2023/07/11 10:00:31;;;;;;;7.85;2.83;;;;;;;20.70;51.89;98606.72;4936625;28;20050;-70
2023/07/11 10:03:02;;;;;;;5.82;3.22;;;;;;;20.54;52.26;98623.31;4921130;28;20047;-71
2023/07/11 10:05:28;;;;;;;3.78;2.13;;;;;;;20.71;52.38;98613.81;4920639;28;20046;-71
2023/07/11 10:08:13;;;;;;;4.18;1.77;;;;;;;21.15;51.36;98607.16;4930808;28;20043;-71
2023/07/11 10:10:45;;;;;;;2.58;1.80;;;;;;;21.55;50.79;98624.44;4919690;28;20051;-71
2023/07/11 10:13:11;;;;;;;5.18;1.92;;;;;;;21.70;50.31;98608.81;4936315;28;20039;-73
2023/07/11 10:15:37;;;;;;;3.38;1.95;;;;;;;21.78;50.00;98603.22;4903131;28;20058;-71
2023/07/11 10:18:03;;;;;;;8.20;2.13;;;;;;;21.80;49.83;98595.69;4936579;28;20055;-71
2023/07/11 10:20:30;;;;;;;5.78;2.08;;;;;;;21.74;49.55;98591.09;4936563;28;20046;-71
2023/07/11 10:23:03;;;;;;;4.47;1.95;;;;;;;21.71;49.22;98605.91;4935198;28;20058;-71
2023/07/11 10:25:30;;;;;;;3.33;1.98;;;;;;;21.52;49.55;98597.72;4950515;28;20490;-72
2023/07/11 10:28:08;;;;;;;8.93;2.38;;;;;;;21.43;49.75;98609.81;4948157;28;20058;-71
2023/07/11 10:30:36;;;;;;;5.57;2.70;;;;;;;21.12;50.40;98602.97;4934635;28;20073;-70
2023/07/11 10:33:07;;;;;;;13.18;2.40;;;;;;;20.99;50.46;98620.00;4951091;28;20082;-70
2023/07/11 10:35:34;;;;;;;9.40;2.60;;;;;;;20.81;50.67;98625.13;4935747;28;20046;-73
2023/07/11 10:38:08;;;;;;;8.65;2.65;;;;;;;20.76;50.94;98614.06;4934061;28;20039;-72
2023/07/11 10:40:38;;;;;;;2.43;2.23;;;;;;;20.81;50.43;98617.00;4918628;28;20061;-73
2023/07/11 10:43:15;;;;;;;3.58;1.90;;;;;;;20.84;50.75;98623.91;4929636;28;20797;-73
2023/07/11 10:45:44;;;;;;;1.90;1.80;;;;;;;20.89;49.63;98634.94;4906391;28;20395;-70
2023/07/11 10:48:38;;;;;;;4.20;2.30;;;;;;;20.99;49.98;98605.66;4917269;28;20050;-70
2023/07/11 10:51:21;;;;;;;7.85;2.28;;;;;;;21.17;49.42;98621.34;4915855;29;20055;-70
2023/07/11 10:54:03;;;;;;;4.10;2.17;;;;;;;21.14;49.86;98619.88;4900434;29;20035;-71
2023/07/11 10:56:40;;;;;;;2.88;2.10;;;;;;;21.01;49.96;98628.78;4920493;28;20394;-72
2023/07/11 10:59:12;;;;;;;5.57;2.08;;;;;;;20.89;50.15;98607.84;4936448;28;20498;-70
2023/07/11 11:01:58;;;;;;;6.65;2.33;;;;;;;20.82;50.99;98615.97;4935329;28;20057;-72
2023/07/11 11:04:39;;;;;;;5.70;2.45;;;;;;;20.65;51.14;98607.31;4936634;28;20043;-71
2023/07/11 11:07:23;;;;;;;5.95;3.25;;;;;;;20.77;51.28;98620.31;4919206;28;20050;-73
2023/07/11 11:10:04;;;;;;;5.53;2.92;;;;;;;20.88;51.05;98617.06;4923254;28;20055;-70
2023/07/11 11:12:59;;;;;;;7.70;3.38;;;;;;;20.74;50.84;98634.25;4923616;28;20509;-70
2023/07/11 11:15:45;;;;;;;2.63;2.33;;;;;;;20.35;51.24;98619.41;4936110;28;20051;-71
2023/07/11 11:18:41;;;;;;;5.20;2.75;;;;;;;19.88;52.17;98620.84;4919438;28;20067;-70
2023/07/11 11:21:28;;;;;;;3.40;2.95;;;;;;;19.48;53.12;98621.44;4929638;28;20069;-71
2023/07/11 11:24:15;;;;;;;4.82;3.30;;;;;;;19.10;53.69;98616.22;4947540;28;20042;-69
2023/07/11 11:27:17;;;;;;;13.05;3.38;;;;;;;19.10;54.15;98620.78;4917311;28;20055;-69
2023/07/11 11:30:06;;;;;;;5.03;3.03;;;;;;;19.05;54.42;98613.25;4919326;28;20047;-69
2023/07/11 11:33:08;;;;;;;5.55;3.33;;;;;;;19.10;54.66;98610.81;4918561;28;20054;-67
2023/07/11 11:35:45;;;;;;;6.30;3.20;;;;;;;19.13;53.76;98615.00;4933012;28;20058;-67
2023/07/11 11:38:17;;;;;;;7.85;2.53;;;;;;;19.37;53.65;98611.13;4928022;28;20167;-66
2023/07/11 11:40:46;;;;;;;3.38;2.83;;;;;;;19.52;53.22;98620.06;4935706;28;20062;-64
2023/07/11 11:43:14;;;;;;;6.68;3.10;;;;;;;19.60;52.47;98616.41;4935977;28;20042;-67